createdAt,value
2023-05-04T00:01:48.468Z,99.9
2023-05-04T00:03:51.772Z,99.9
2023-05-04T00:05:57.952Z,99.9
2023-05-04T00:08:01.069Z,99.9
2023-05-04T00:10:04.410Z,99.9
2023-05-04T00:12:07.376Z,99.9
2023-05-04T00:14:10.509Z,99.9
2023-05-04T00:16:13.660Z,99.9
2023-05-04T00:18:16.798Z,99.9
2023-05-04T00:20:23.120Z,99.9
2023-05-04T00:22:26.252Z,99.9
2023-05-04T00:24:29.421Z,99.9
2023-05-04T00:26:32.572Z,99.9
2023-05-04T00:28:35.690Z,99.9
2023-05-04T00:30:38.605Z,99.9
2023-05-04T00:36:51.292Z,99.9
2023-05-04T00:38:54.427Z,99.9
2023-05-04T00:40:57.534Z,99.9
2023-05-04T00:43:00.694Z,99.9
2023-05-04T00:45:03.823Z,99.9
2023-05-04T00:47:07.044Z,99.9
2023-05-04T00:49:13.299Z,99.9
2023-05-04T00:51:16.448Z,99.9
2023-05-04T01:03:59.412Z,99.9
2023-05-04T01:06:02.493Z,99.9
2023-05-04T01:14:15.344Z,99.9
2023-05-04T01:16:21.424Z,99.9
2023-05-04T01:18:24.561Z,99.9
2023-05-04T01:20:27.686Z,99.9
2023-05-04T01:26:37.087Z,99.9
2023-05-04T01:28:40.203Z,99.9
2023-05-04T01:30:46.568Z,99.9
2023-05-04T01:32:49.770Z,99.9
2023-05-04T01:34:52.827Z,99.9
2023-05-04T01:36:55.970Z,99.9
2023-05-04T01:38:59.086Z,99.9
2023-05-04T01:47:14.879Z,99.9
2023-05-04T01:49:17.939Z,99.9
2023-05-04T01:50:21.105Z,99.9
2023-05-04T01:52:24.299Z,99.9
2023-05-04T01:56:30.487Z,99.9
2023-05-04T01:58:36.833Z,99.9
2023-05-04T02:00:39.963Z,99.9
2023-05-04T02:02:43.196Z,99.9
2023-05-04T02:04:46.221Z,99.9
2023-05-04T02:06:49.346Z,99.9
2023-05-04T02:08:52.481Z,99.9
2023-05-04T02:10:55.592Z,99.9
2023-05-04T02:13:01.956Z,99.9
2023-05-04T02:15:05.066Z,99.9
2023-05-04T02:19:11.289Z,99.9
2023-05-04T02:23:17.539Z,99.9
2023-05-04T02:25:20.702Z,99.9
2023-05-04T02:27:26.980Z,99.9
2023-05-04T02:33:36.327Z,99.9
2023-05-04T02:39:45.684Z,99.9
2023-05-04T02:41:52.042Z,99.9
2023-05-04T02:43:55.165Z,99.9
2023-05-04T02:47:01.481Z,99.9
2023-05-04T02:49:04.558Z,99.9
2023-05-04T02:51:07.678Z,99.9
2023-05-04T02:53:10.781Z,99.9
2023-05-04T02:55:17.125Z,99.9
2023-05-04T03:05:32.722Z,99.9
2023-05-04T03:15:51.510Z,99.9
2023-05-04T03:17:54.665Z,99.9
2023-05-04T03:30:16.539Z,99.9
2023-05-04T03:32:19.638Z,99.9
2023-05-04T03:34:22.802Z,99.9
2023-05-04T03:36:25.861Z,99.9
2023-05-04T03:38:32.203Z,99.9
2023-05-04T03:40:35.317Z,99.9
2023-05-04T03:43:41.610Z,99.9
2023-05-04T03:45:44.731Z,99.9
2023-05-04T03:47:47.863Z,99.9
2023-05-04T03:49:50.996Z,99.9
2023-05-04T03:51:57.295Z,99.9
2023-05-04T03:54:00.417Z,99.9
2023-05-04T03:56:03.533Z,99.9
2023-05-04T03:58:06.657Z,99.9
2023-05-04T04:04:16.021Z,99.9
2023-05-04T04:06:22.325Z,99.9
2023-05-04T04:18:41.011Z,99.9
2023-05-04T04:20:47.331Z,99.9
2023-05-04T04:22:50.425Z,99.9
2023-05-04T04:26:56.650Z,99.9
2023-05-04T04:28:59.765Z,99.9
2023-05-04T04:33:06.066Z,99.9
2023-05-04T04:35:12.292Z,99.9
2023-05-04T04:37:15.410Z,99.9
2023-05-04T04:39:18.549Z,99.9
2023-05-04T04:43:49.506Z,99.9
2023-05-04T04:45:52.589Z,99.9
2023-05-04T04:47:58.828Z,99.9
2023-05-04T04:50:02.121Z,99.9
2023-05-04T05:00:19.085Z,99.9
2023-05-04T05:02:25.436Z,99.9
2023-05-04T05:04:28.528Z,99.9
2023-05-04T05:06:31.582Z,99.9
2023-05-04T05:08:34.719Z,99.9
2023-05-04T05:10:37.834Z,99.9
2023-05-04T05:12:40.992Z,99.9
2023-05-04T05:14:44.075Z,99.9
2023-05-04T05:18:53.539Z,99.9
2023-05-04T05:20:56.669Z,99.9
2023-05-04T05:22:59.795Z,99.9
2023-05-04T05:25:02.909Z,99.9
2023-05-04T05:27:06.001Z,99.9
2023-05-04T05:29:09.158Z,99.9
2023-05-04T05:31:15.494Z,99.9
2023-05-04T05:33:18.664Z,99.9
2023-05-04T05:35:21.729Z,99.9
2023-05-04T05:36:24.889Z,99.9
2023-05-04T05:38:28.025Z,99.9
2023-05-04T05:40:31.153Z,99.9
2023-05-04T05:42:34.274Z,99.9
2023-05-04T05:44:40.609Z,99.9
2023-05-04T05:46:43.845Z,99.9
2023-05-04T05:50:50.024Z,99.9
2023-05-04T05:56:59.411Z,99.9
2023-05-04T05:59:05.775Z,99.9
2023-05-04T06:01:08.902Z,99.9
2023-05-04T06:03:12.130Z,99.9
2023-05-04T06:05:15.183Z,99.9
2023-05-04T06:07:18.349Z,99.9
2023-05-04T06:09:21.480Z,99.9
2023-05-04T06:13:30.975Z,99.9
2023-05-04T06:15:34.141Z,99.9
2023-05-04T06:17:37.317Z,99.9
2023-05-04T06:23:46.758Z,99.9
2023-05-04T06:25:49.898Z,99.9
2023-05-04T06:27:56.244Z,99.9
2023-05-04T06:32:02.583Z,99.9
2023-05-04T06:33:05.813Z,99.9
2023-05-04T06:35:09.053Z,99.9
2023-05-04T06:39:15.234Z,99.9
2023-05-04T06:41:21.575Z,99.9
2023-05-04T06:43:24.734Z,99.9
2023-05-04T06:45:27.968Z,99.9
2023-05-04T06:47:31.088Z,99.9
2023-05-04T06:51:37.423Z,99.9
2023-05-04T06:53:40.563Z,99.9
2023-05-04T06:55:46.970Z,99.9
2023-05-04T06:57:50.121Z,99.9
2023-05-04T06:59:53.277Z,99.9
2023-05-04T07:03:59.651Z,99.9
2023-05-04T07:06:02.788Z,99.9
2023-05-04T07:08:05.964Z,99.9
2023-05-04T07:10:12.347Z,99.9
2023-05-04T07:12:15.508Z,99.9
2023-05-04T07:14:18.698Z,99.9
2023-05-04T07:16:21.756Z,99.9
2023-05-04T07:18:24.830Z,99.9
2023-05-04T07:20:28.049Z,99.9
2023-05-04T07:22:31.058Z,99.9
2023-05-04T07:26:40.327Z,99.9
2023-05-04T07:31:49.613Z,99.9
2023-05-04T07:33:52.619Z,99.9
2023-05-04T07:38:01.864Z,99.9
2023-05-04T07:44:11.108Z,99.9
2023-05-04T07:46:14.191Z,99.9
2023-05-04T07:50:20.308Z,99.9
2023-05-04T07:52:26.492Z,99.5
2023-05-04T07:56:32.637Z,84.8
2023-05-04T08:00:38.796Z,91.1
2023-05-04T08:04:44.930Z,89.1
2023-05-04T08:11:07.969Z,71.1
2023-05-04T08:13:00.289Z,60.2
2023-05-04T08:15:03.648Z,59.8
2023-05-04T08:17:06.400Z,58.8
2023-05-04T08:23:18.632Z,50.8
2023-05-04T08:25:21.704Z,50.9
2023-05-04T08:27:51.036Z,50.9
2023-05-04T08:29:54.078Z,51.1
2023-05-04T08:34:03.276Z,51.8
2023-05-04T08:36:06.322Z,51.1
2023-05-04T08:38:09.347Z,50
2023-05-04T08:40:12.404Z,49.2
2023-05-04T08:42:15.412Z,49.1
2023-05-04T08:44:18.439Z,49.7
2023-05-04T08:46:21.531Z,51.8
2023-05-04T08:48:27.624Z,56
2023-05-04T08:50:30.632Z,57.2
2023-05-04T08:52:33.658Z,64.2
2023-05-04T08:54:36.686Z,56
2023-05-04T08:56:39.683Z,56.1
2023-05-04T08:58:42.719Z,56.9
2023-05-04T09:00:45.735Z,65.3
2023-05-04T09:02:51.926Z,65.9
2023-05-04T09:04:54.905Z,65.5
2023-05-04T09:06:57.902Z,65.4
2023-05-04T09:09:00.927Z,65
2023-05-04T09:13:07.004Z,77.4
2023-05-04T09:17:16.131Z,80.2
2023-05-04T09:19:19.159Z,78.2
2023-05-04T09:21:22.167Z,69.6
2023-05-04T09:22:26.502Z,69.6
2023-05-04T09:24:28.254Z,69.1
2023-05-04T09:26:31.276Z,69.3
2023-05-04T09:28:34.277Z,71.8
2023-05-04T09:32:43.454Z,74.7
2023-05-04T09:34:46.434Z,68.9
2023-05-04T10:05:37.736Z,65
2023-05-04T10:11:46.639Z,54.6
2023-05-04T10:15:55.830Z,50.7
2023-05-04T10:17:58.738Z,51.2
2023-05-04T10:19:01.772Z,51.5
2023-05-04T10:29:21.386Z,55.6
2023-05-04T10:31:22.731Z,54.6
2023-05-04T10:33:25.670Z,52.9
2023-05-04T10:35:28.621Z,51.5
2023-05-04T10:39:34.569Z,50.4
2023-05-04T10:41:40.684Z,50.6
2023-05-04T10:58:09.475Z,49.5
2023-05-04T11:06:23.954Z,48.6
2023-05-04T11:10:30.165Z,47.9
2023-05-04T11:12:33.228Z,46.7
2023-05-04T11:15:39.161Z,44.9
2023-05-04T11:17:42.175Z,44.4
2023-05-04T11:19:45.125Z,44
2023-05-04T11:21:48.100Z,43.6
2023-05-04T11:23:54.189Z,42.6
2023-05-04T11:28:00.162Z,38.9
2023-05-04T11:30:03.068Z,38.4
2023-05-04T11:34:08.934Z,37.7
2023-05-04T11:36:11.882Z,37.3
2023-05-04T11:38:17.948Z,36.8
2023-05-04T11:40:20.836Z,36.5
2023-05-04T11:42:23.814Z,36.1
2023-05-04T11:44:26.639Z,35.9
2023-05-04T11:48:32.429Z,35.5
2023-05-04T11:52:41.343Z,35.2
2023-05-04T11:54:44.198Z,35
2023-05-04T11:56:47.080Z,34.8
2023-05-04T11:58:49.954Z,34.7
2023-05-04T12:00:54.248Z,34.5
2023-05-04T12:04:58.555Z,34.4
2023-05-04T12:13:31.470Z,34.1
2023-05-04T12:15:34.302Z,34.1
2023-05-04T12:17:37.131Z,34.2
2023-05-04T12:19:43.115Z,34.2
2023-05-04T12:21:45.915Z,34.2
2023-05-04T12:23:48.765Z,34.1
2023-05-04T12:25:58.154Z,34
2023-05-04T12:27:54.419Z,33.6
2023-05-04T12:29:57.196Z,32.8
2023-05-04T12:40:27.883Z,32.1
2023-05-04T12:42:17.187Z,31.9
2023-05-04T12:44:19.958Z,31.6
2023-05-04T12:46:22.928Z,31.3
2023-05-04T12:48:28.703Z,30.9
2023-05-04T12:50:31.469Z,30.7
2023-05-04T12:54:37.063Z,31
2023-05-04T12:56:39.862Z,31.2
2023-05-04T12:58:42.637Z,31.1
2023-05-04T13:00:46.209Z,30.9
2023-05-04T13:07:59.942Z,29.9
2023-05-04T13:16:14.327Z,30
2023-05-04T13:20:19.804Z,29.9
2023-05-04T13:22:22.577Z,29.9
2023-05-04T13:24:25.348Z,29.6
2023-05-04T13:26:27.921Z,29.2
2023-05-04T13:28:30.764Z,28.8
2023-05-04T13:30:36.476Z,28.6
2023-05-04T13:32:39.212Z,28.6
2023-05-04T13:34:41.975Z,28.8
2023-05-04T13:36:44.738Z,28.9
2023-05-04T13:38:47.521Z,29.1
2023-05-04T13:44:59.042Z,28.8
2023-05-04T13:49:04.592Z,28.4
2023-05-04T13:59:21.524Z,26
2023-05-04T14:01:24.498Z,26
2023-05-04T14:03:27.092Z,25.9
2023-05-04T14:04:29.948Z,25.7
2023-05-04T14:08:35.312Z,25.4
2023-05-04T14:14:46.353Z,24.7
2023-05-04T14:16:48.983Z,24.8
2023-05-04T14:18:51.573Z,24.8
2023-05-04T14:20:54.196Z,25
2023-05-04T14:22:56.898Z,25.2
2023-05-04T14:24:59.664Z,25.4
2023-05-04T14:27:05.475Z,25.6
2023-05-04T14:29:08.144Z,25.8
2023-05-04T14:31:10.878Z,25.8
2023-05-04T14:33:13.646Z,25.7
2023-05-04T14:35:16.247Z,25.8
2023-05-04T14:39:21.726Z,26.2
2023-05-04T14:41:27.607Z,26.2
2023-05-04T14:55:50.107Z,25.6
2023-05-04T15:00:58.650Z,25.2
2023-05-04T15:03:01.473Z,25.3
2023-05-04T15:05:04.213Z,25.3
2023-05-04T15:07:07.021Z,25.5
2023-05-04T15:09:12.960Z,26.1
2023-05-04T15:11:16.698Z,26.3
2023-05-04T15:13:18.538Z,26.5
2023-05-04T15:15:21.360Z,26.7
2023-05-04T15:17:24.193Z,26.9
2023-05-04T15:19:26.972Z,26.8
2023-05-04T15:21:29.782Z,26.9
2023-05-04T15:23:35.736Z,27
2023-05-04T15:25:38.552Z,27.1
2023-05-04T15:27:41.368Z,27.1
2023-05-04T15:29:44.191Z,27.3
2023-05-04T15:31:47.093Z,27.5
2023-05-04T15:33:49.850Z,27.7
2023-05-04T15:35:52.700Z,27.9
2023-05-04T15:40:02.732Z,28.1
2023-05-04T15:42:04.383Z,28
2023-05-04T15:44:07.228Z,28
2023-05-04T15:46:10.039Z,27.9
2023-05-04T15:48:12.915Z,27.9
2023-05-04T15:50:15.738Z,28
2023-05-04T15:54:24.593Z,28.6
2023-05-04T15:58:56.501Z,29
2023-05-04T16:00:59.380Z,28.9
2023-05-04T16:03:02.391Z,28.8
2023-05-04T16:05:08.238Z,28.8
2023-05-04T16:07:11.096Z,28.7
2023-05-04T16:09:13.955Z,28.6
2023-05-04T16:11:16.834Z,28.7
2023-05-04T16:13:19.779Z,28.8
2023-05-04T16:15:22.567Z,28.9
2023-05-04T16:17:25.476Z,29.1
2023-05-04T16:19:31.463Z,29.9
2023-05-04T16:25:40.104Z,31
2023-05-04T16:27:43.328Z,31.3
2023-05-04T16:29:45.880Z,31.5
2023-05-04T16:31:48.769Z,31.7
2023-05-04T16:35:57.750Z,32.2
2023-05-04T16:38:00.633Z,32.5
2023-05-04T16:40:03.604Z,32.5
2023-05-04T16:42:06.481Z,32.7
2023-05-04T16:44:09.421Z,32.8
2023-05-04T16:46:12.392Z,33
2023-05-04T16:50:22.883Z,33.2
2023-05-04T16:52:25.803Z,33.2
2023-05-04T16:55:31.788Z,33.1
2023-05-04T16:57:34.715Z,33.1
2023-05-04T17:01:43.791Z,32.7
2023-05-04T17:03:46.819Z,32.5
2023-05-04T17:09:55.576Z,32.5
2023-05-04T17:11:58.572Z,32.6
2023-05-04T17:16:07.617Z,32.6
2023-05-04T17:18:10.537Z,32.4
2023-05-04T17:20:13.532Z,32.5
2023-05-04T17:22:16.494Z,32.4
2023-05-04T17:24:19.437Z,32.4
2023-05-04T17:26:22.447Z,32.5
2023-05-04T17:28:25.395Z,32.6
2023-05-04T17:30:31.514Z,32.7
2023-05-04T17:36:40.438Z,33.1
2023-05-04T17:38:43.415Z,33.1
2023-05-04T17:42:49.413Z,33.2
2023-05-04T17:44:55.497Z,33.3
2023-05-04T17:46:58.506Z,33.4
2023-05-04T17:49:01.516Z,33.4
2023-05-04T17:50:04.750Z,33.3
2023-05-04T17:52:07.512Z,33.4
2023-05-04T17:56:13.508Z,33.4
2023-05-04T17:58:19.638Z,33.6
2023-05-04T18:00:22.666Z,33.7
2023-05-04T18:02:25.662Z,33.9
2023-05-04T18:10:37.634Z,34.9
2023-05-04T18:12:43.786Z,35.5
2023-05-04T18:16:49.761Z,35.9
2023-05-04T18:20:55.780Z,36.5
2023-05-04T18:25:01.831Z,37
2023-05-04T18:29:18.431Z,37.8
2023-05-04T18:31:13.992Z,38
2023-05-04T18:33:16.959Z,38.4
2023-05-04T18:37:22.987Z,39.1
2023-05-04T18:39:26.042Z,39.4
2023-05-04T18:41:32.151Z,40.1
2023-05-04T18:43:35.162Z,40.4
2023-05-04T18:45:38.227Z,40.7
2023-05-04T18:46:41.259Z,41
2023-05-04T18:52:50.295Z,42.2
2023-05-04T18:54:56.430Z,43
2023-05-04T18:56:59.454Z,43.4
2023-05-04T19:01:05.546Z,45.1
2023-05-04T19:03:08.583Z,46.4
2023-05-04T19:05:13.794Z,47.8
2023-05-04T19:07:14.561Z,48.1
2023-05-04T19:09:20.795Z,50.5
2023-05-04T19:11:23.721Z,51.2
2023-05-04T19:13:26.740Z,52.9
2023-05-04T19:15:29.805Z,53.2
2023-05-04T19:17:32.851Z,54.3
2023-05-04T19:19:35.861Z,54.8
2023-05-04T19:21:38.906Z,55.5
2023-05-04T19:23:45.030Z,56.7
2023-05-04T19:25:48.026Z,57.4
2023-05-04T19:31:58.270Z,63.3
2023-05-04T19:34:00.145Z,63.6
2023-05-04T19:38:09.317Z,68.9
2023-05-04T19:40:12.332Z,69.3
2023-05-04T19:42:15.369Z,69.3
2023-05-04T19:44:44.662Z,71.4
2023-05-04T19:46:47.718Z,71.7
2023-05-04T19:48:50.736Z,73.5
2023-05-04T19:52:59.901Z,79.3
2023-05-04T19:55:02.898Z,79.4
2023-05-04T19:57:05.934Z,81.2
2023-05-04T20:01:12.003Z,87.6
2023-05-04T20:03:15.039Z,88.2
2023-05-04T20:05:21.138Z,89.7
2023-05-04T20:07:24.153Z,90
2023-05-04T20:09:27.198Z,91.6
2023-05-04T20:11:30.236Z,91.8
2023-05-04T20:13:33.249Z,92.3
2023-05-04T20:15:36.285Z,93.3
2023-05-04T20:23:51.515Z,97.2
2023-05-04T20:25:54.580Z,98.3
2023-05-04T20:30:00.637Z,99.1
2023-05-04T20:32:03.677Z,99.4
2023-05-04T20:34:09.812Z,99.9
2023-05-04T20:36:12.818Z,99.9
2023-05-04T20:38:15.896Z,99.9
2023-05-04T20:39:18.934Z,99.9
2023-05-04T20:43:25.020Z,99.9
2023-05-04T20:45:28.029Z,99.9
2023-05-04T20:47:34.234Z,99.9
2023-05-04T20:49:37.234Z,99.9
2023-05-04T20:51:40.249Z,99.9
2023-05-04T20:53:43.341Z,99.9
2023-05-04T20:55:46.337Z,99.9
2023-05-04T20:57:49.438Z,99.9
2023-05-04T21:35:56.871Z,99.9
2023-05-04T21:44:12.263Z,99.9
2023-05-04T21:48:18.424Z,99.9
2023-05-04T21:50:21.483Z,99.9
2023-05-04T21:54:27.611Z,99.9
2023-05-04T21:56:30.682Z,99.9
2023-05-04T21:58:36.874Z,99.9
2023-05-04T22:00:39.991Z,99.9
2023-05-04T22:02:43.040Z,99.9
2023-05-04T22:04:46.091Z,99.9
2023-05-04T22:06:49.150Z,99.9
2023-05-04T22:08:52.241Z,99.9
2023-05-04T22:10:55.280Z,99.9
2023-05-04T22:13:01.478Z,99.9
2023-05-04T22:15:04.541Z,99.9
2023-05-04T22:17:08.389Z,99.9
2023-05-04T22:19:11.409Z,99.9
2023-05-04T22:21:14.519Z,99.9
2023-05-04T22:23:17.568Z,99.9
2023-05-04T22:25:20.615Z,99.9
2023-05-04T22:27:26.796Z,99.9
2023-05-04T22:29:29.881Z,99.9
2023-05-04T22:31:32.960Z,99.9
2023-05-04T22:32:36.037Z,99.9
2023-05-04T22:36:42.154Z,99.9
2023-05-04T22:38:45.234Z,99.9
2023-05-04T22:40:51.441Z,99.9
2023-05-04T22:42:56.065Z,99.9
2023-05-04T22:44:59.097Z,99.9
2023-05-04T22:47:02.146Z,99.9
2023-05-04T22:49:05.212Z,99.9
2023-05-04T22:51:08.293Z,99.9
2023-05-04T22:53:11.334Z,99.9
2023-05-04T23:03:29.884Z,99.9
2023-05-04T23:05:32.869Z,99.9
2023-05-04T23:09:42.139Z,99.9
2023-05-04T23:15:51.374Z,99.9
2023-05-04T23:19:57.521Z,99.9
2023-05-04T23:22:00.566Z,99.9
2023-05-04T23:24:06.746Z,99.9
2023-05-04T23:26:09.831Z,99.9
2023-05-04T23:28:12.878Z,99.9
2023-05-04T23:30:42.377Z,99.9
2023-05-04T23:32:45.448Z,99.9
2023-05-04T23:36:54.708Z,99.9
2023-05-04T23:38:57.756Z,99.9
2023-05-04T23:41:00.815Z,99.9
2023-05-04T23:43:03.906Z,99.9
2023-05-04T23:45:06.975Z,99.9
2023-05-04T23:47:10.036Z,99.9
2023-05-04T23:49:13.139Z,99.9
2023-05-04T23:51:19.290Z,99.9
2023-05-04T23:53:22.357Z,99.9
2023-05-04T23:55:25.430Z,99.9
2023-05-04T23:57:28.496Z,99.9
2023-05-04T23:59:31.552Z,99.9
